Seleccionar fecha


martes, 17 abril, 2018

Fecha Temperaturas Humedad relativa Presión atmosférica Precipitaciones Dirección viento Velocidad del viento Velocidad de racha Iluminancia
11:51 PM15,9 ºC48 %965 hPa0,00 l/m2 315º NO 0,00 m/s0,00 m/s2.2 Lux
11:41 PM15,8 ºC51 %965 hPa0,00 l/m2 157,5º SSE 0,00 m/s0,00 m/s2.2 Lux
11:31 PM16,1 ºC51 %965 hPa0,00 l/m2 135º SE 0,00 m/s0,00 m/s2.2 Lux
11:21 PM16,1 ºC50 %965 hPa0,00 l/m2 0º N 0,00 m/s0,00 m/s2.2 Lux
11:11 PM16,3 ºC51 %965 hPa0,00 l/m2 135º SE 0,00 m/s0,10 m/s2.3 Lux
11:01 PM16,0 ºC54 %965 hPa0,00 l/m2 180º S 0,00 m/s0,00 m/s2.3 Lux
10:51 PM16,2 ºC53 %965 hPa0,00 l/m2 315º NO 0,00 m/s0,00 m/s2.2 Lux
10:41 PM16,5 ºC53 %965 hPa0,00 l/m2 67,5º ENE 0,00 m/s0,00 m/s2.3 Lux
10:31 PM16,6 ºC53 %965 hPa0,00 l/m2 247,5º OSO 0,00 m/s0,00 m/s2.3 Lux
10:21 PM16,9 ºC52 %965 hPa0,00 l/m2 337,5º NNO 0,00 m/s0,00 m/s2.2 Lux
10:11 PM17,1 ºC52 %965 hPa0,00 l/m2 315º NO 0,00 m/s0,00 m/s2.4 Lux
10:01 PM17,2 ºC51 %964 hPa0,00 l/m2 90º E 0,00 m/s0,00 m/s2.3 Lux
09:51 PM17,3 ºC50 %964 hPa0,00 l/m2 0º N 0,00 m/s0,00 m/s2.4 Lux
09:41 PM17,4 ºC50 %964 hPa0,00 l/m2 202,5º SSO 0,00 m/s0,00 m/s2.3 Lux
09:31 PM17,6 ºC49 %964 hPa0,00 l/m2 180º S 0,00 m/s0,00 m/s2.4 Lux
09:21 PM17,7 ºC48 %964 hPa0,00 l/m2 315º NO 0,00 m/s0,00 m/s2.6 Lux
09:11 PM17,9 ºC48 %964 hPa0,00 l/m2 135º SE 0,00 m/s0,00 m/s5.1 Lux
09:01 PM18,2 ºC47 %964 hPa0,00 l/m2 0º N 0,00 m/s0,00 m/s24.6 Lux
08:51 PM18,6 ºC45 %964 hPa0,00 l/m2 225º SO 0,00 m/s0,00 m/s113.7 Lux
08:41 PM19,1 ºC44 %964 hPa0,00 l/m2 157,5º SSE 0,00 m/s0,00 m/s289 Lux
08:31 PM19,4 ºC43 %964 hPa0,00 l/m2 157,5º SSE 0,00 m/s0,00 m/s859.6 Lux
08:21 PM19,8 ºC41 %964 hPa0,00 l/m2 180º S 0,00 m/s0,00 m/s1308.8 Lux
08:11 PM19,9 ºC41 %964 hPa0,00 l/m2 45º NE 0,00 m/s0,00 m/s1670.6 Lux
08:01 PM20,5 ºC40 %964 hPa0,00 l/m2 157,5º SSE 0,00 m/s0,00 m/s2554.9 Lux
07:51 PM20,6 ºC39 %964 hPa0,00 l/m2 135º SE 0,00 m/s0,00 m/s3800.8 Lux
07:41 PM21,0 ºC38 %964 hPa0,00 l/m2 135º SE 0,00 m/s0,00 m/s4047.8 Lux
07:31 PM21,3 ºC38 %964 hPa0,00 l/m2 135º SE 0,00 m/s0,00 m/s5309.4 Lux
07:21 PM20,9 ºC38 %964 hPa0,00 l/m2 0º N 0,00 m/s0,20 m/s11428.3 Lux
07:11 PM21,8 ºC36 %964 hPa0,00 l/m2 135º SE 0,30 m/s1,00 m/s11428.3 Lux
07:01 PM21,7 ºC35 %964 hPa0,00 l/m2 157,5º SSE 0,10 m/s0,30 m/s3575 Lux
06:51 PM21,8 ºC35 %964 hPa0,00 l/m2 135º SE 0,00 m/s0,20 m/s3368.1 Lux
06:41 PM22,2 ºC36 %964 hPa0,00 l/m2 180º S 0,20 m/s1,90 m/s3178.1 Lux
06:31 PM22,4 ºC35 %964 hPa0,00 l/m2 45º NE 0,00 m/s0,20 m/s3800.8 Lux
06:21 PM22,7 ºC34 %964 hPa0,00 l/m2 157,5º SSE 0,10 m/s0,40 m/s3575 Lux
06:11 PM23,0 ºC34 %964 hPa0,00 l/m2 135º SE 0,10 m/s0,30 m/s4047.8 Lux
06:01 PM23,4 ºC33 %964 hPa0,00 l/m2 135º SE 0,00 m/s0,20 m/s4047.8 Lux
05:51 PM25,0 ºC31 %964 hPa0,00 l/m2 157,5º SSE 0,20 m/s1,00 m/s3800.8 Lux
05:41 PM24,4 ºC31 %964 hPa0,00 l/m2 157,5º SSE 0,10 m/s0,80 m/s3368.1 Lux
05:31 PM25,3 ºC31 %964 hPa0,00 l/m2 135º SE 0,10 m/s0,60 m/s3575 Lux
05:21 PM25,1 ºC30 %964 hPa0,00 l/m2 90º E 0,00 m/s0,00 m/s4047.8 Lux
05:11 PM25,0 ºC31 %964 hPa0,00 l/m2 180º S 0,00 m/s0,10 m/s3800.8 Lux
05:01 PM24,8 ºC32 %964 hPa0,00 l/m2 0º N 0,00 m/s0,40 m/s4047.8 Lux
04:51 PM24,8 ºC31 %964 hPa0,00 l/m2 0º N 0,00 m/s0,10 m/s4318.8 Lux
04:41 PM25,0 ºC31 %964 hPa0,00 l/m2 45º NE 0,10 m/s0,20 m/s4318.8 Lux
04:31 PM25,2 ºC30 %964 hPa0,00 l/m2 0º N 0,10 m/s0,20 m/s4047.8 Lux
04:21 PM25,4 ºC31 %964 hPa0,00 l/m2 157,5º SSE 0,00 m/s0,20 m/s4616.8 Lux
04:11 PM24,6 ºC32 %965 hPa0,00 l/m2 90º E 0,10 m/s0,40 m/s4616.8 Lux
04:01 PM25,1 ºC32 %965 hPa0,00 l/m2 0º N 0,20 m/s1,20 m/s5309.4 Lux
03:51 PM25,1 ºC32 %965 hPa0,00 l/m2 0º N 0,00 m/s0,20 m/s4945.6 Lux
03:41 PM25,1 ºC31 %965 hPa0,00 l/m2 225º SO 0,00 m/s0,10 m/s4616.8 Lux
03:31 PM25,0 ºC31 %965 hPa0,00 l/m2 90º E 0,00 m/s0,00 m/s4945.6 Lux
03:21 PM24,4 ºC32 %965 hPa0,00 l/m2 292,5º ONO 0,10 m/s0,30 m/s4945.6 Lux
03:11 PM24,7 ºC32 %965 hPa0,00 l/m2 0º N 0,00 m/s0,20 m/s4945.6 Lux
03:01 PM24,8 ºC31 %965 hPa0,00 l/m2 337,5º NNO 0,10 m/s0,50 m/s4945.6 Lux
02:51 PM25,5 ºC29 %965 hPa0,00 l/m2 180º S 0,00 m/s0,10 m/s4945.6 Lux
02:41 PM25,5 ºC31 %965 hPa0,00 l/m2 157,5º SSE 0,00 m/s0,00 m/s5309.4 Lux
02:32 PM25,5 ºC31 %965 hPa0,00 l/m2 0º N 0,00 m/s0,10 m/s5309.4 Lux
02:22 PM25,8 ºC29 %965 hPa0,00 l/m2 45º NE 0,00 m/s0,20 m/s5713.1 Lux
02:12 PM26,0 ºC29 %965 hPa0,00 l/m2 90º E 0,10 m/s0,30 m/s5309.4 Lux
01:52 PM26,5 ºC27 %965 hPa0,00 l/m2 135º SE 0,00 m/s0,10 m/s5713.1 Lux
01:22 PM26,3 ºC28 %965 hPa0,00 l/m2 135º SE 0,00 m/s0,10 m/s5713.1 Lux
01:12 PM26,7 ºC28 %965 hPa0,00 l/m2 67,5º ENE 0,00 m/s0,10 m/s5309.4 Lux
01:02 PM26,4 ºC31 %965 hPa0,00 l/m2 270º O 0,00 m/s0,00 m/s5309.4 Lux
12:52 PM25,6 ºC32 %965 hPa0,00 l/m2 225º SO 0,00 m/s0,00 m/s5713.1 Lux
12:42 PM25,0 ºC35 %966 hPa0,00 l/m2 0º N 0,00 m/s0,00 m/s5309.4 Lux
12:32 PM25,0 ºC35 %966 hPa0,00 l/m2 0º N 0,00 m/s0,00 m/s5309.4 Lux
12:22 PM24,6 ºC37 %966 hPa0,00 l/m2 0º N 0,00 m/s0,00 m/s5309.4 Lux
11:52 AM23,1 ºC38 %965 hPa0,00 l/m2 0º N 0,10 m/s0,20 m/s4318.8 Lux
11:42 AM22,5 ºC42 %966 hPa0,00 l/m2 0º N 0,00 m/s0,20 m/s4616.8 Lux
11:32 AM21,4 ºC45 %965 hPa0,00 l/m2 0º N 0,00 m/s0,00 m/s4616.8 Lux
11:22 AM21,5 ºC44 %966 hPa0,00 l/m2 135º SE 0,00 m/s0,00 m/s3800.8 Lux
11:12 AM22,0 ºC45 %965 hPa0,00 l/m2 315º NO 0,00 m/s0,00 m/s3800.8 Lux
11:02 AM21,4 ºC42 %965 hPa0,00 l/m2 315º NO 0,00 m/s0,00 m/s4318.8 Lux
10:52 AM20,2 ºC47 %965 hPa0,00 l/m2 292,5º ONO 0,00 m/s0,00 m/s4318.8 Lux
10:42 AM19,8 ºC51 %965 hPa0,00 l/m2 247,5º OSO 0,00 m/s0,00 m/s3575 Lux
10:32 AM18,8 ºC54 %965 hPa0,00 l/m2 247,5º OSO 0,00 m/s0,00 m/s3003.2 Lux
10:22 AM17,8 ºC56 %965 hPa0,00 l/m2 292,5º ONO 0,00 m/s0,00 m/s2841.9 Lux
10:08 AM17,9 ºC63 %965 hPa0,00 l/m2 0º N 0,00 m/s0,00 m/s2554.9 Lux
09:58 AM15,0 ºC64 %965 hPa0,00 l/m2 0º N 0,00 m/s0,00 m/s2308 Lux
09:48 AM13,5 ºC72 %965 hPa0,00 l/m2 0º N 0,00 m/s0,00 m/s2841.9 Lux
09:38 AM11,4 ºC82 %965 hPa0,00 l/m2 0º N 0,00 m/s0,00 m/s2426.9 Lux
09:28 AM10,0 ºC87 %965 hPa0,00 l/m2 0º N 0,00 m/s0,00 m/s1823.7 Lux
09:18 AM9,4 ºC89 %965 hPa0,00 l/m2 0º N 0,00 m/s0,00 m/s887.7 Lux
09:08 AM9,1 ºC89 %965 hPa0,00 l/m2 0º N 0,00 m/s0,00 m/s587.4 Lux
08:58 AM8,7 ºC90 %965 hPa0,00 l/m2 0º N 0,00 m/s0,00 m/s478.2 Lux
08:28 AM7,7 ºC90 %965 hPa0,00 l/m2 0º N 0,00 m/s0,00 m/s277.9 Lux
08:18 AM8,6 ºC88 %965 hPa0,00 l/m2 0º N 0,00 m/s0,00 m/s231 Lux
08:08 AM8,2 ºC89 %965 hPa0,00 l/m2 0º N 0,00 m/s0,00 m/s141.3 Lux
07:58 AM8,2 ºC88 %965 hPa0,00 l/m2 0º N 0,00 m/s0,00 m/s88 Lux
07:48 AM8,3 ºC88 %964 hPa0,00 l/m2 0º N 0,00 m/s0,00 m/s42 Lux
07:38 AM8,4 ºC87 %964 hPa0,00 l/m2 0º N 0,00 m/s0,00 m/s12.8 Lux
07:28 AM8,7 ºC87 %964 hPa0,00 l/m2 0º N 0,00 m/s0,00 m/s3.6 Lux
07:08 AM8,5 ºC89 %964 hPa0,00 l/m2 0º N 0,00 m/s0,00 m/s2.3 Lux
06:58 AM8,5 ºC90 %964 hPa0,00 l/m2 0º N 0,00 m/s0,00 m/s2.3 Lux
06:48 AM8,3 ºC92 %964 hPa0,00 l/m2 0º N 0,00 m/s0,00 m/s2.2 Lux
06:38 AM8,0 ºC93 %964 hPa0,00 l/m2 202,5º SSO 0,00 m/s0,00 m/s2.3 Lux
06:28 AM7,8 ºC94 %964 hPa0,00 l/m2 0º N 0,00 m/s0,00 m/s2.2 Lux
06:18 AM7,9 ºC94 %964 hPa0,00 l/m2 0º N 0,00 m/s0,00 m/s2.3 Lux
06:08 AM8,1 ºC94 %964 hPa0,00 l/m2 0º N 0,00 m/s0,00 m/s2.3 Lux
05:58 AM8,4 ºC93 %964 hPa0,00 l/m2 0º N 0,00 m/s0,00 m/s2.2 Lux
05:48 AM8,8 ºC92 %964 hPa0,00 l/m2 0º N 0,00 m/s0,00 m/s2.3 Lux
05:38 AM8,8 ºC92 %964 hPa0,00 l/m2 202,5º SSO 0,00 m/s0,00 m/s2.2 Lux
05:28 AM8,7 ºC92 %965 hPa0,00 l/m2 0º N 0,00 m/s0,00 m/s2.3 Lux
05:18 AM8,7 ºC93 %965 hPa0,00 l/m2 0º N 0,00 m/s0,00 m/s2.3 Lux
05:08 AM8,4 ºC94 %965 hPa0,00 l/m2 0º N 0,00 m/s0,00 m/s2.3 Lux
04:58 AM7,8 ºC96 %965 hPa0,00 l/m2 0º N 0,00 m/s0,00 m/s2.2 Lux
04:48 AM7,7 ºC96 %965 hPa0,00 l/m2 0º N 0,00 m/s0,00 m/s2.2 Lux
04:39 AM7,2 ºC97 %965 hPa0,00 l/m2 0º N 0,00 m/s0,00 m/s2.2 Lux
04:29 AM7,2 ºC95 %965 hPa0,00 l/m2 0º N 0,00 m/s0,00 m/s2.2 Lux
04:19 AM7,8 ºC92 %965 hPa0,00 l/m2 202,5º SSO 0,00 m/s0,00 m/s2.3 Lux
04:09 AM9,4 ºC88 %965 hPa0,00 l/m2 0º N 0,00 m/s0,00 m/s2.3 Lux
03:59 AM10,5 ºC84 %965 hPa0,00 l/m2 202,5º SSO 0,00 m/s0,00 m/s2.3 Lux
03:49 AM10,4 ºC84 %965 hPa0,00 l/m2 202,5º SSO 0,00 m/s0,00 m/s2.2 Lux
03:39 AM10,8 ºC82 %965 hPa0,00 l/m2 202,5º SSO 0,00 m/s0,00 m/s2.2 Lux
03:29 AM10,4 ºC84 %965 hPa0,00 l/m2 0º N 0,00 m/s0,00 m/s2.3 Lux
03:19 AM10,1 ºC85 %965 hPa0,00 l/m2 0º N 0,00 m/s0,00 m/s2.3 Lux
03:09 AM10,3 ºC83 %965 hPa0,00 l/m2 0º N 0,00 m/s0,00 m/s2.3 Lux
02:59 AM10,1 ºC84 %965 hPa0,00 l/m2 180º S 0,00 m/s0,00 m/s2.3 Lux
02:39 AM10,5 ºC81 %965 hPa0,00 l/m2 0º N 0,00 m/s0,00 m/s2.3 Lux
02:29 AM10,3 ºC82 %965 hPa0,00 l/m2 0º N 0,00 m/s0,00 m/s2.3 Lux
02:19 AM10,3 ºC82 %965 hPa0,00 l/m2 0º N 0,00 m/s0,00 m/s2.3 Lux
02:09 AM10,2 ºC82 %965 hPa0,00 l/m2 0º N 0,00 m/s0,00 m/s2.3 Lux
01:59 AM10,4 ºC81 %965 hPa0,00 l/m2 0º N 0,00 m/s0,00 m/s2.2 Lux
01:49 AM10,5 ºC81 %965 hPa0,00 l/m2 0º N 0,00 m/s0,00 m/s2.2 Lux
01:39 AM10,5 ºC80 %965 hPa0,00 l/m2 0º N 0,00 m/s0,00 m/s2.3 Lux
01:29 AM10,4 ºC81 %965 hPa0,00 l/m2 202,5º SSO 0,00 m/s0,00 m/s2.2 Lux
01:19 AM10,4 ºC81 %965 hPa0,00 l/m2 0º N 0,00 m/s0,00 m/s2.3 Lux
01:09 AM10,4 ºC81 %965 hPa0,00 l/m2 0º N 0,00 m/s0,00 m/s2.2 Lux
12:59 AM10,6 ºC80 %965 hPa0,00 l/m2 0º N 0,00 m/s0,00 m/s2.3 Lux
12:49 AM10,5 ºC81 %964 hPa0,00 l/m2 0º N 0,00 m/s0,00 m/s2.2 Lux
12:39 AM10,6 ºC80 %965 hPa0,00 l/m2 0º N 0,00 m/s0,00 m/s2.2 Lux
12:29 AM11,0 ºC78 %965 hPa0,00 l/m2 0º N 0,00 m/s0,00 m/s2.3 Lux
12:19 AM11,3 ºC77 %965 hPa0,00 l/m2 0º N 0,00 m/s0,00 m/s2.3 Lux
12:09 AM11,0 ºC79 %965 hPa0,00 l/m2 0º N 0,00 m/s0,00 m/s2.3 Lux
WeatherStation © 2018